St. James City, FL

7:15 PM EDT on August 28, 2016 (GMT -0400)
KFLST.JA1 | | Change Station

Elev 5 ft 26.50 °N, 82.08 °W | Updated 5 minutes ago

Clear
Clear
84.8 °F
Feels Like 93 °F
N
3.0
Wind Variable Wind from East
Gusts 3.0 mph

Today
High -- | Low -- °F
--% Chance of Precip.
Yesterday
High -- | Low -- °F
Precip. -- in
Pressure 29.87 in
Visibility 10.0 miles
Clouds Clear
Heat Index 93 °F
Dew Point 75 °F
Humidity 72%
Rainfall 0.00 in
Snow Depth Not available.
7:06 AM 7:51 PM
Waning Crescent, 12% visible
METAR KFMY 282253Z 09010KT 10SM CLR 29/23 A2986 RMK AO2 SLP113 T02890233
Pressure 29.87 in
Visibility 10.0 miles
Clouds Clear
Heat Index 93 °F
Dew Point 75 °F
Humidity 72%
Rainfall 0.00 in
Snow Depth Not available.
7:06 AM 7:51 PM
Waning Crescent, 12% visible
METAR KFMY 282253Z 09010KT 10SM CLR 29/23 A2986 RMK AO2 SLP113 T02890233

10-Day Weather Forecast

Almanac

Astronomy

Aug. 28, 2016 Rise Set
Actual Time
Civil Twilight
Nautical Twilight
Astronomical Twilight
Moon
Length of Visible Light
Length of Day
Tomorrow will be .
, % of the Moon is Illuminated

Today's Extremes

State Highs State Lows

Community

WunderPhotos

Upload Photos

1,935,711 photos uploaded!

WunderBlog® & News

Nearby

Air Quality

  Air Quality AQ Index Pollutant
Not available.

Snow Depth

Station Depth Elevation

Earthquake Activity

City Distance Mag. Time & Date
Minimum magnitude displayed is 2.5.

Coastal Water Temperatures

Place Temperature

Stations

Nearby Weather Stations

Station Location Temp. Windchill Dew Point Humidity Wind Precip. Elev Updated Type
                   

Watches & Warnings

There are currently no watches in effect.